Time;durP1;ratioP1;P1;durP2;ratioP2;P2;SDS_P1;SDS_P2;PMS_P1;PMS_P2;Temp;Humidity;BMP_temperature;BMP_pressure;BME280_temperature;BME280_humidity;BME280_pressure;Samples;Min_cycle;Max_cycle;Signal;HPM_P1;HPM_P2
2023/08/31 05:25:21;;;;;;;;;;;;;;;19.05;59.22;96675.84;4248795;27;10344;-60
2023/08/31 05:27:24;;;;;;;;;;;;;;;19.34;58.46;96671.88;4248619;27;6365;-61
2023/08/31 05:29:27;;;;;;;;;;;;;;;19.56;57.71;96668.38;4248155;27;5669;-60
2023/08/31 05:31:30;;;;;;;;;;;;;;;19.72;57.44;96673.66;4248826;27;5774;-61
2023/08/31 15:10:03;;;;;;;;;;;;;;;21.66;52.25;96750.16;4228705;27;10422;-61
2023/08/31 15:12:06;;;;;;;;;;;;;;;21.94;51.51;96744.28;4221256;28;5698;-61
2023/08/31 15:14:09;;;;;;;;;;;;;;;22.16;50.82;96741.38;4213301;28;5682;-60
2023/08/31 15:16:12;;;;;;;;;;;;;;;22.35;50.78;96738.97;4207481;28;5711;-64
2023/08/31 15:18:15;;;;;;;;;;;;;;;22.48;50.60;96743.81;4205512;28;5905;-61
2023/08/31 15:20:18;;;;;;;;;;;;;;;22.59;50.17;96744.63;4213180;28;5786;-62
2023/08/31 15:22:22;;;;;;;;;;;;;;;22.67;49.87;96742.19;4212165;28;5879;-61
2023/08/31 15:24:25;;;;;;;;;;;;;;;22.76;50.04;96747.00;4213259;28;5895;-61
2023/08/31 15:26:29;;;;;;;;;;;;;;;22.83;49.76;96745.69;4216400;28;5733;-60
2023/08/31 15:28:31;;;;;;;;;;;;;;;22.90;49.53;96756.19;4212785;28;5686;-60
2023/08/31 15:30:34;;;;;;;;;;;;;;;22.94;49.79;96759.97;4212912;28;5890;-61
2023/08/31 15:32:37;;;;;;;;;;;;;;;23.00;49.74;96761.56;4213255;28;5769;-61
2023/08/31 15:34:40;;;;;;;;;;;;;;;23.03;49.41;96761.03;4212840;28;5686;-61
2023/08/31 15:36:43;;;;;;;;;;;;;;;23.06;49.61;96763.16;4213122;28;5704;-61
2023/08/31 15:38:46;;;;;;;;;;;;;;;23.10;49.13;96764.22;4213070;28;5730;-61
2023/08/31 15:40:49;;;;;;;;;;;;;;;23.11;49.35;96760.47;4212786;28;5793;-61
2023/08/31 15:42:54;;;;;;;;;;;;;;;23.14;48.94;96759.91;4212932;28;5764;-61
2023/08/31 15:44:57;;;;;;;;;;;;;;;23.14;48.94;96762.63;4212727;28;5785;-61
2023/08/31 15:47:03;;;;;;;;;;;;;;;23.14;49.38;96759.09;4212989;28;5797;-61
2023/08/31 15:49:06;;;;;;;;;;;;;;;23.14;48.91;96761.81;4213018;28;6495;-61
2023/08/31 15:51:10;;;;;;;;;;;;;;;23.13;48.96;96761.00;4212564;28;5682;-60
2023/08/31 15:53:12;;;;;;;;;;;;;;;23.13;48.85;96757.50;4212942;28;5693;-62
2023/08/31 15:55:15;;;;;;;;;;;;;;;23.13;48.95;96754.81;4212281;28;6609;-62
2023/08/31 15:57:18;;;;;;;;;;;;;;;23.12;48.65;96756.69;4212742;28;5773;-62
2023/08/31 15:59:22;;;;;;;;;;;;;;;23.11;48.95;96752.38;4211774;28;5725;-62
2023/08/31 16:01:26;;;;;;;;;;;;;;;23.12;48.38;96769.38;4212378;28;5769;-62
2023/08/31 16:03:30;;;;;;;;;;;;;;;23.13;48.53;96761.00;4211942;28;5702;-62
2023/08/31 16:05:33;;;;;;;;;;;;;;;23.12;48.67;96754.00;4209164;28;5896;-62
2023/08/31 16:07:37;;;;;;;;;;;;;;;23.12;48.22;96759.38;4207343;28;5833;-62
2023/08/31 16:09:39;;;;;;;;;;;;;;;23.12;48.69;96764.78;4210611;28;5686;-61
2023/08/31 16:11:42;;;;;;;;;;;;;;;23.11;48.29;96762.38;4195461;28;5839;-62
2023/08/31 16:13:45;;;;;;;;;;;;;;;23.10;48.66;96766.91;4197446;28;6078;-62
2023/08/31 16:15:51;;;;;;;;;;;;;;;23.09;48.53;96770.69;4197155;28;5789;-66
2023/08/31 16:17:54;;;;;;;;;;;;;;;23.10;48.44;96769.63;4202211;28;5820;-70
2023/08/31 16:19:57;;;;;;;;;;;;;;;23.11;48.28;96768.56;4206773;28;5807;-69
2023/08/31 16:22:00;;;;;;;;;;;;;;;23.11;48.38;96760.47;4200374;28;7107;-69
2023/08/31 16:24:04;;;;;;;;;;;;;;;23.11;48.10;96768.56;4196585;28;5856;-69
2023/08/31 16:26:06;;;;;;;;;;;;;;;23.10;47.67;96772.31;4208032;28;5698;-68
2023/08/31 16:28:10;;;;;;;;;;;;;;;23.09;47.66;96765.31;4200421;28;5829;-68
2023/08/31 16:30:15;;;;;;;;;;;;;;;23.09;47.66;96768.00;4199846;28;5809;-68
2023/08/31 16:32:20;;;;;;;;;;;;;;;23.09;47.80;96765.31;4200249;28;5830;-68
2023/08/31 16:34:23;;;;;;;;;;;;;;;23.09;47.77;96765.31;4202990;28;5902;-69
2023/08/31 16:36:26;;;;;;;;;;;;;;;23.09;46.97;96765.31;4200990;28;5691;-68
2023/08/31 16:38:30;;;;;;;;;;;;;;;23.06;47.31;96768.56;4201053;28;5717;-68
2023/08/31 16:40:33;;;;;;;;;;;;;;;23.07;47.39;96769.38;4195620;28;5726;-66
2023/08/31 16:42:37;;;;;;;;;;;;;;;23.07;47.24;96767.47;4202943;28;5098;-66
2023/08/31 16:44:40;;;;;;;;;;;;;;;23.06;47.08;96768.56;4200868;28;5825;-66
2023/08/31 16:46:44;;;;;;;;;;;;;;;23.06;46.86;96770.44;4203786;28;5804;-65
2023/08/31 16:48:48;;;;;;;;;;;;;;;23.05;46.67;96761.56;4195677;28;6408;-66
2023/08/31 16:50:52;;;;;;;;;;;;;;;23.04;46.81;96765.34;4193498;28;5682;-67
2023/08/31 16:52:54;;;;;;;;;;;;;;;23.03;46.98;96763.72;4196890;28;5664;-68
2023/08/31 16:54:58;;;;;;;;;;;;;;;23.01;47.15;96768.59;4201022;28;5766;-67
2023/08/31 16:57:01;;;;;;;;;;;;;;;23.03;46.90;96763.72;4198239;28;5686;-67
2023/08/31 16:59:04;;;;;;;;;;;;;;;23.03;47.29;96760.22;4199239;28;6477;-67
2023/08/31 17:01:07;;;;;;;;;;;;;;;23.02;47.26;96756.72;4199143;28;5900;-65
2023/08/31 17:03:10;;;;;;;;;;;;;;;23.02;47.04;96755.91;4196767;28;5749;-61
2023/08/31 17:05:15;;;;;;;;;;;;;;;23.01;47.11;96752.41;4199977;28;6481;-62
2023/08/31 17:07:18;;;;;;;;;;;;;;;23.00;46.89;96761.56;4201661;28;5807;-63
2023/08/31 17:09:21;;;;;;;;;;;;;;;23.00;46.84;96758.06;4200151;28;5710;-62
2023/08/31 17:11:24;;;;;;;;;;;;;;;22.98;46.98;96761.00;4201526;28;5580;-62
2023/08/31 17:13:27;;;;;;;;;;;;;;;22.98;46.77;96761.00;4199938;28;5702;-62
2023/08/31 17:15:31;;;;;;;;;;;;;;;22.95;46.96;96756.97;4200356;28;6459;-63
2023/08/31 17:17:34;;;;;;;;;;;;;;;22.93;46.92;96753.75;4196506;28;5805;-63
2023/08/31 17:19:37;;;;;;;;;;;;;;;22.92;47.14;96749.44;4199476;28;5689;-63
2023/08/31 17:21:42;;;;;;;;;;;;;;;22.92;46.92;96744.06;4199352;28;7719;-63
2023/08/31 17:23:45;;;;;;;;;;;;;;;22.91;46.88;96739.75;4201340;28;5785;-62
2023/08/31 17:25:48;;;;;;;;;;;;;;;22.92;47.17;96743.25;4199738;28;5697;-61
2023/08/31 17:27:51;;;;;;;;;;;;;;;22.92;46.88;96748.66;4194516;28;5861;-62
2023/08/31 17:29:54;;;;;;;;;;;;;;;22.91;47.13;96747.03;4198551;28;5679;-62
2023/08/31 17:31:57;;;;;;;;;;;;;;;22.89;47.01;96750.00;4200989;28;5792;-62
2023/08/31 17:33:59;;;;;;;;;;;;;;;22.89;47.05;96749.19;4190957;28;5783;-62
2023/08/31 17:36:02;;;;;;;;;;;;;;;22.88;46.62;96750.28;4192662;28;5119;-62
2023/08/31 17:38:06;;;;;;;;;;;;;;;22.87;47.08;96754.84;4190170;28;5718;-61
2023/08/31 17:40:09;;;;;;;;;;;;;;;22.87;46.92;96751.34;4189576;28;5690;-61
2023/08/31 17:42:13;;;;;;;;;;;;;;;22.87;46.67;96762.13;4193516;28;7332;-61
2023/08/31 17:44:16;;;;;;;;;;;;;;;22.86;47.01;96752.41;4202470;28;6313;-61
2023/08/31 17:46:19;;;;;;;;;;;;;;;22.86;46.65;96764.00;4198131;28;6126;-61
2023/08/31 17:48:22;;;;;;;;;;;;;;;22.86;46.96;96757.81;4193770;28;5118;-61
2023/08/31 17:50:25;;;;;;;;;;;;;;;22.87;46.80;96756.72;4192617;28;5821;-61
2023/08/31 17:52:27;;;;;;;;;;;;;;;22.86;46.75;96765.91;4199807;28;5686;-61
2023/08/31 17:54:31;;;;;;;;;;;;;;;22.84;46.41;96755.38;4197675;28;5920;-62
2023/08/31 17:56:34;;;;;;;;;;;;;;;22.84;46.51;96759.97;4199782;28;5731;-62
2023/08/31 17:58:37;;;;;;;;;;;;;;;22.83;46.47;96774.50;4201534;28;5803;-61
2023/08/31 18:00:40;;;;;;;;;;;;;;;22.83;46.44;96769.09;4197524;28;5848;-61
2023/08/31 18:02:44;;;;;;;;;;;;;;;22.83;46.44;96775.34;4195316;28;5831;-61
2023/08/31 18:04:46;;;;;;;;;;;;;;;22.83;46.52;96790.66;4195909;28;5694;-60
2023/08/31 18:06:52;;;;;;;;;;;;;;;22.83;46.42;96777.19;4191654;28;5864;-61
2023/08/31 18:08:55;;;;;;;;;;;;;;;22.83;46.60;96783.44;4189817;28;5915;-60
2023/08/31 18:11:01;;;;;;;;;;;;;;;22.84;46.69;96784.22;4198909;28;6365;-60
2023/08/31 18:13:04;;;;;;;;;;;;;;;22.82;46.25;96786.38;4193368;28;5861;-59
2023/08/31 18:15:08;;;;;;;;;;;;;;;22.83;46.58;96790.66;4196886;28;5685;-66
2023/08/31 18:17:11;;;;;;;;;;;;;;;22.82;46.44;96797.16;4205643;28;5731;-63
2023/08/31 18:19:14;;;;;;;;;;;;;;;22.82;46.31;96791.75;4186465;28;6273;-61
2023/08/31 18:21:18;;;;;;;;;;;;;;;22.81;46.77;96795.53;4197726;28;5677;-66
2023/08/31 18:23:20;;;;;;;;;;;;;;;22.82;46.65;96799.84;4199998;28;6483;-64
2023/08/31 18:25:23;;;;;;;;;;;;;;;22.82;46.70;96813.31;4200793;28;6410;-67
2023/08/31 18:27:27;;;;;;;;;;;;;;;22.82;46.70;96813.31;4199619;28;5690;-63
2023/08/31 18:29:30;;;;;;;;;;;;;;;22.82;46.59;96813.31;4195771;28;5718;-68
2023/08/31 18:31:33;;;;;;;;;;;;;;;22.82;46.21;96808.72;4192748;28;5718;-66
2023/08/31 18:33:36;;;;;;;;;;;;;;;22.82;46.49;96814.13;4193960;28;5776;-67
2023/08/31 18:35:39;;;;;;;;;;;;;;;22.82;46.75;96816.81;4197765;28;5859;-66
2023/08/31 18:37:42;;;;;;;;;;;;;;;22.83;46.50;96825.72;4189845;28;5809;-67
2023/08/31 18:39:45;;;;;;;;;;;;;;;22.81;46.20;96814.41;4199479;28;5694;-64
2023/08/31 18:41:48;;;;;;;;;;;;;;;22.81;46.66;96811.69;4200392;28;5705;-63
2023/08/31 18:43:52;;;;;;;;;;;;;;;22.81;46.42;96825.19;4199272;28;5797;-63
2023/08/31 18:45:56;;;;;;;;;;;;;;;22.81;46.79;96833.25;4199697;28;5682;-65
2023/08/31 18:47:57;;;;;;;;;;;;;;;22.80;46.51;96840.53;4196864;28;5764;-66
2023/08/31 18:50:01;;;;;;;;;;;;;;;22.80;46.69;96843.22;4199625;28;5098;-65
2023/08/31 18:52:04;;;;;;;;;;;;;;;22.81;46.23;96844.03;4199532;28;5694;-65
2023/08/31 18:54:07;;;;;;;;;;;;;;;22.79;46.30;96846.22;4198385;28;5762;-63
2023/08/31 18:56:10;;;;;;;;;;;;;;;22.80;46.19;96850.50;4197772;28;5889;-64
2023/08/31 18:58:13;;;;;;;;;;;;;;;22.80;46.35;96856.72;4196569;28;5820;-64
2023/08/31 19:00:18;;;;;;;;;;;;;;;22.79;46.17;96859.69;4194789;28;5678;-64
2023/08/31 19:02:22;;;;;;;;;;;;;;;22.80;46.63;96861.28;4194854;28;5764;-64
2023/08/31 19:04:25;;;;;;;;;;;;;;;22.80;46.43;96864.00;4199498;28;5686;-64
2023/08/31 19:06:28;;;;;;;;;;;;;;;22.81;46.27;96865.59;4194798;28;6016;-64
2023/08/31 19:08:31;;;;;;;;;;;;;;;22.79;46.31;96860.47;4196878;28;5679;-65
2023/08/31 19:10:34;;;;;;;;;;;;;;;22.78;46.32;96866.97;4195789;28;5831;-63
2023/08/31 19:12:36;;;;;;;;;;;;;;;22.79;46.33;96873.16;4194998;28;6406;-64
2023/08/31 19:14:39;;;;;;;;;;;;;;;22.79;46.53;96873.16;4192419;28;5689;-66
2023/08/31 19:16:43;;;;;;;;;;;;;;;22.80;46.62;96880.97;4198557;28;5686;-65
2023/08/31 19:18:48;;;;;;;;;;;;;;;22.79;46.28;96873.16;4198716;28;5892;-66
2023/08/31 19:21:00;;;;;;;;;;;;;;;22.79;46.65;96879.34;4199735;28;6374;-66
2023/08/31 19:23:19;;;;;;;;;;;;;;;22.80;46.73;96882.84;4198314;28;6062;-65
2023/08/31 19:25:29;;;;;;;;;;;;;;;22.80;46.28;96885.56;4199536;28;5701;-62
2023/08/31 19:27:32;;;;;;;;;;;;;;;22.79;46.88;96892.81;4197070;28;5823;-61
2023/08/31 19:29:35;;;;;;;;;;;;;;;22.79;46.38;96890.13;4199028;28;5685;-61
2023/08/31 19:31:38;;;;;;;;;;;;;;;22.80;46.43;96901.72;4199592;28;5764;-61
2023/08/31 19:33:42;;;;;;;;;;;;;;;22.81;46.49;96897.94;4200249;28;5690;-62
2023/08/31 19:35:44;;;;;;;;;;;;;;;22.80;47.02;96889.06;4199096;28;5816;-61
2023/08/31 19:38:01;;;;;;;;;;;;;;;22.81;46.67;96889.84;4198720;28;5832;-62
2023/08/31 19:40:06;;;;;;;;;;;;;;;22.80;46.85;96886.34;4198173;28;5843;-68
2023/08/31 19:42:09;;;;;;;;;;;;;;;22.81;46.98;96892.56;4196433;28;5669;-68
2023/08/31 19:44:12;;;;;;;;;;;;;;;22.80;47.22;96901.72;4198130;28;6411;-65
2023/08/31 19:46:15;;;;;;;;;;;;;;;22.80;47.06;96896.34;4195632;28;5739;-64
2023/08/31 19:48:19;;;;;;;;;;;;;;;22.80;46.79;96910.63;4201815;28;5825;-63
2023/08/31 19:50:25;;;;;;;;;;;;;;;22.80;47.15;96912.50;4208748;28;5814;-63
2023/08/31 19:52:28;;;;;;;;;;;;;;;22.81;46.97;96920.31;4202766;28;5689;-62
2023/08/31 19:54:31;;;;;;;;;;;;;;;22.80;47.05;96926.78;4202600;28;5693;-63
2023/08/31 19:56:34;;;;;;;;;;;;;;;22.81;46.88;96924.91;4202560;28;5768;-64
2023/08/31 19:58:38;;;;;;;;;;;;;;;22.80;47.14;96924.09;4202137;28;5805;-64
2023/08/31 20:00:41;;;;;;;;;;;;;;;22.81;47.34;96925.72;4202137;28;5789;-62
2023/08/31 20:02:43;;;;;;;;;;;;;;;22.81;46.90;96924.91;4205790;28;5755;-79
